Terminal Aerodrome Forecast
Issued by NWS Cleveland, OH

Home | Current Version | Previous Version | Graphics & Text | Print | Product List | Glossary On
Versions: 1 2 3 4 5 6 7 8 9 10 11 12 13 14 15
000
FTUS41 KCLE 311733
TAFERI
TAF
KERI 311733Z 3118/0118 25012G22KT P6SM SKC
     FM010000 23010KT P6SM VCSH SCT050 BKN150
     FM010400 23006KT P6SM SCT250
     FM011400 27006KT P6SM SCT250=

USA.gov is the U.S. government's official web portal to all federal, state and local government web resources and services.